CDT,Max TemperatureF,Mean TemperatureF,Min TemperatureF,Max Dew PointF,MeanDew PointF,Min DewpointF,Max Humidity, Mean Humidity, Min Humidity, Max Sea Level PressureIn, Mean Sea Level PressureIn, Min Sea Level PressureIn, Max VisibilityMiles, Mean VisibilityMiles, Min VisibilityMiles, Max Wind SpeedMPH, Mean Wind SpeedMPH, Max Gust SpeedMPH,PrecipitationIn, CloudCover, Events, WindDirDegrees
2013-9-1,86,78,69,75,72,68,94,86,70,29.95,29.91,29.86,10,7,2,9,1,,0.15,1,Thunderstorm,218
2013-9-2,84,76,69,72,69,66,94,83,62,30.03,29.94,29.88,10,8,2,18,3,,1.93,2,Thunderstorm,234
2013-9-3,87,78,68,72,69,64,94,77,46,30.01,29.95,29.91,10,9,4,9,2,,0.00,3,Thunderstorm,315
2013-9-4,87,76,64,66,63,61,94,73,40,30.12,30.06,30.00,10,10,5,7,1,,0.00,0,,339
2013-9-5,86,74,62,70,64,59,94,74,40,30.17,30.12,30.08,10,10,7,7,1,,0.00,0,,341
2013-9-6,89,76,64,70,65,61,94,75,46,30.16,30.11,30.05,10,10,7,10,1,,0.00,0,,24
2013-9-7,89,76,64,70,66,63,94,75,43,30.13,30.07,30.02,10,9,5,6,1,,0.00,1,,126
2013-9-8,89,76,64,73,67,61,94,77,46,30.05,30.01,29.96,10,8,2,6,1,,0.00,1,,259
2013-9-9,91,80,68,73,69,64,94,75,43,30.10,30.05,30.01,10,8,3,9,1,,0.00,0,,85
2013-9-10,89,80,71,72,69,66,94,74,46,30.21,30.16,30.10,10,9,4,8,2,,0.00,1,,123
2013-9-11,89,78,66,70,66,63,94,73,43,30.23,30.17,30.11,10,8,3,8,1,,0.00,1,,99
2013-9-12,89,76,64,72,65,63,94,72,40,30.11,30.04,29.94,10,8,0,14,1,23,0.03,1,Thunderstorm,274
2013-9-13,84,73,62,70,61,52,94,67,37,29.97,29.93,29.88,10,9,4,12,3,17,0.00,1,,350
2013-9-14,80,66,53,59,53,48,88,67,39,30.06,30.01,29.96,10,10,9,9,4,,0.00,0,,14
2013-9-15,84,70,55,66,59,52,94,75,42,30.14,30.10,30.06,10,10,2,10,1,,0.00,2,,172
2013-9-16,86,73,60,66,60,55,94,72,37,30.17,30.12,30.08,10,10,3,10,1,,0.00,0,,341
2013-9-17,82,72,62,68,63,57,88,74,58,30.20,30.14,30.10,10,10,5,15,3,17,0.00,1,,82
2013-9-18,82,72,62,66,62,59,88,72,51,30.22,30.16,30.10,10,10,8,10,4,,0.00,3,,95
2013-9-19,84,72,60,64,62,57,94,73,45,30.19,30.12,30.06,10,10,7,7,1,,0.00,0,,104
2013-9-20,86,73,60,66,62,57,94,70,45,30.08,29.99,29.89,10,9,3,12,2,,0.00,0,,167
2013-9-21,73,68,62,70,65,57,94,85,73,29.88,29.81,29.77,10,10,5,14,3,24,1.03,6,,288
2013-9-22,80,68,55,63,56,52,88,73,42,29.90,29.85,29.82,10,10,8,14,3,,0.00,1,,14
2013-9-23,82,68,53,63,57,50,94,72,39,29.99,29.95,29.89,10,10,5,10,2,,0.00,1,,86
2013-9-24,71,68,64,66,63,61,94,86,78,30.00,29.94,29.86,10,7,2,13,5,17,0.02,8,,75
2013-9-25,75,70,66,66,63,61,88,83,69,29.89,29.85,29.81,10,8,3,10,5,,0.02,8,,64
2013-9-26,80,71,60,63,61,57,88,76,51,30.02,29.95,29.88,10,10,5,8,3,,0.00,5,,61
2013-9-27,80,68,57,63,56,54,94,71,39,30.15,30.08,30.02,10,9,1,9,2,,0.00,2,,73
2013-9-28,78,66,53,57,54,50,94,71,39,30.22,30.15,30.09,10,10,8,12,2,17,0.00,0,,96
2013-9-29,75,63,51,57,54,46,94,72,47,30.15,30.09,30.02,10,10,5,7,1,,0.00,1,,112
2013-9-30,75,66,57,61,56,54,94,75,53,30.09,30.04,29.99,10,10,9,7,1,,0.00,4,,89